Vernal Regional Airport
KVEL : now visible

Airfield :











YOU CAN JOIN US ON...

 
LOGIN :

Register | Disclaimer

   EN    FR    IT 

 









Legend :    VFR   Marginal VFR   IFR   Intensive IFR   Very Intensive IFR
Visi :
Ceiling :
>= 8 km
>= 3000ft
5 to 8 km
1000 to 3000 ft
1500m to 5 km
500 to 1000 ft
800 to 1500m
200 to 500 ft
< 800m
< 200 ft
Symbols :   Thunderstorms  Fog  Heavy snow  Heavy precipitations  Wind > 20 kt






- Airport Elevation : 5278 ft


KVEL - Vernal Regional

CURRENT METAR :
  • 291753Z AUTO 00000KT 10SM CLR 28/03 A3019 RMK AO2 SLP155 T02780028 10283 20111 58009

EXPIRED METARs :
  • 291653Z AUTO VRB03KT 10SM CLR 26/04 A3021 RMK AO2 SLP158 T02560044
  • 291553Z AUTO VRB03KT 10SM CLR 23/03 A3022 RMK AO2 SLP162 T02280033
  • 291453Z AUTO 09003KT 10SM CLR 21/02 A3022 RMK AO2 SLP166 T02110022 51014

TAF KVEL
Valid from the 29 at 18:00 until the 30 at 18:00 UTC


291734Z 2918/3018 VRB04KT P6SM VCTS SCT090CB SCT120
FM292100 28012G20KT P6SM VCTS SCT090CB BKN150
FM300200 31005KT P6SM SCT100 BKN200
FM301300 00000KT P6SM FEW090 FEW200
KZLC FIR / North America



MET'MAP, your aeronautical weather chart ! - Copyright ORBIFLY December 2007 - Disclaimer

ORBIFLY MET'MAP TEAM :

Programming & Development : Alexandra Zaïnal
Concept & original design : Baudouin d'Aumeries
Assistance for programming : Marc-Olivier Méhu
Technical & hardware support : Manuel Goepfert

Contact : metmap@orbifly.com




SOURCES & CREDITS :

   NOAA       Earth
Advisory